sensor_id;sensor_type;location;lat;lon;timestamp;P1;durP1;ratioP1;P2;durP2;ratioP2
56271;SDS011;42177;48.914;18.160;2024-02-15T00:02:59;14.5;;;10.4;;
56271;SDS011;42177;48.914;18.160;2024-02-15T00:07:59;15.7;;;10.9;;
56271;SDS011;42177;48.914;18.160;2024-02-15T00:12:59;15.7;;;10.9;;
56271;SDS011;42177;48.914;18.160;2024-02-15T00:18:00;12.8;;;10.5;;
56271;SDS011;42177;48.914;18.160;2024-02-15T00:22:59;12.8;;;10.5;;
56271;SDS011;42177;48.914;18.160;2024-02-15T00:27:59;13;;;9.7;;
56271;SDS011;42177;48.914;18.160;2024-02-15T00:32:59;13;;;9.7;;
56271;SDS011;42177;48.914;18.160;2024-02-15T00:38:00;12.9;;;10.3;;
56271;SDS011;42177;48.914;18.160;2024-02-15T00:42:59;12.9;;;10.3;;
56271;SDS011;42177;48.914;18.160;2024-02-15T00:47:59;12.8;;;10.4;;
56271;SDS011;42177;48.914;18.160;2024-02-15T00:52:59;12.8;;;10.4;;
56271;SDS011;42177;48.914;18.160;2024-02-15T00:57:59;13.9;;;10.7;;
56271;SDS011;42177;48.914;18.160;2024-02-15T01:02:59;13.9;;;10.7;;
56271;SDS011;42177;48.914;18.160;2024-02-15T01:07:59;13.1;;;10.4;;
56271;SDS011;42177;48.914;18.160;2024-02-15T01:12:59;13.1;;;10.4;;
56271;SDS011;42177;48.914;18.160;2024-02-15T01:18:00;13.5;;;10.4;;
56271;SDS011;42177;48.914;18.160;2024-02-15T01:22:59;13.5;;;10.4;;
56271;SDS011;42177;48.914;18.160;2024-02-15T01:27:59;14.2;;;10.2;;
56271;SDS011;42177;48.914;18.160;2024-02-15T01:32:59;14.2;;;10.2;;
56271;SDS011;42177;48.914;18.160;2024-02-15T01:37:59;12.1;;;9.5;;
56271;SDS011;42177;48.914;18.160;2024-02-15T01:42:59;12.1;;;9.5;;
56271;SDS011;42177;48.914;18.160;2024-02-15T01:47:59;12.5;;;9.6;;
56271;SDS011;42177;48.914;18.160;2024-02-15T01:52:59;12.5;;;9.6;;
56271;SDS011;42177;48.914;18.160;2024-02-15T01:58:00;12.3;;;10.1;;
56271;SDS011;42177;48.914;18.160;2024-02-15T02:02:59;12.3;;;10.1;;
56271;SDS011;42177;48.914;18.160;2024-02-15T02:07:59;15.5;;;11.2;;
56271;SDS011;42177;48.914;18.160;2024-02-15T02:13:00;15.5;;;11.2;;
56271;SDS011;42177;48.914;18.160;2024-02-15T02:18:00;14.2;;;11.2;;
56271;SDS011;42177;48.914;18.160;2024-02-15T02:23:01;14.2;;;11.2;;
56271;SDS011;42177;48.914;18.160;2024-02-15T02:28:00;15.7;;;11.7;;
56271;SDS011;42177;48.914;18.160;2024-02-15T02:33:00;15.7;;;11.7;;
56271;SDS011;42177;48.914;18.160;2024-02-15T02:37:59;14.6;;;11.2;;
56271;SDS011;42177;48.914;18.160;2024-02-15T02:42:59;14.6;;;11.2;;
56271;SDS011;42177;48.914;18.160;2024-02-15T02:47:59;12.1;;;9.1;;
56271;SDS011;42177;48.914;18.160;2024-02-15T02:52:59;12.1;;;9.1;;
56271;SDS011;42177;48.914;18.160;2024-02-15T02:57:59;11.6;;;9.3;;
56271;SDS011;42177;48.914;18.160;2024-02-15T03:03:00;11.6;;;9.3;;
56271;SDS011;42177;48.914;18.160;2024-02-15T03:08:00;11;;;8.5;;
56271;SDS011;42177;48.914;18.160;2024-02-15T03:13:00;11;;;8.5;;
56271;SDS011;42177;48.914;18.160;2024-02-15T03:18:00;11.1;;;8.2;;
56271;SDS011;42177;48.914;18.160;2024-02-15T03:23:00;11.1;;;8.2;;
56271;SDS011;42177;48.914;18.160;2024-02-15T03:28:00;11.1;;;8;;
56271;SDS011;42177;48.914;18.160;2024-02-15T03:33:00;11.1;;;8;;
56271;SDS011;42177;48.914;18.160;2024-02-15T03:38:00;10.7;;;8.7;;
56271;SDS011;42177;48.914;18.160;2024-02-15T03:42:59;10.7;;;8.7;;
56271;SDS011;42177;48.914;18.160;2024-02-15T03:48:00;11.7;;;9.4;;
56271;SDS011;42177;48.914;18.160;2024-02-15T03:52:59;11.7;;;9.4;;
56271;SDS011;42177;48.914;18.160;2024-02-15T03:57:59;12.8;;;10.8;;
56271;SDS011;42177;48.914;18.160;2024-02-15T04:02:59;12.8;;;10.8;;
56271;SDS011;42177;48.914;18.160;2024-02-15T04:08:00;13.7;;;11.2;;
56271;SDS011;42177;48.914;18.160;2024-02-15T04:12:59;13.7;;;11.2;;
56271;SDS011;42177;48.914;18.160;2024-02-15T04:17:59;15.1;;;10.8;;
56271;SDS011;42177;48.914;18.160;2024-02-15T04:23:00;15.1;;;10.8;;
56271;SDS011;42177;48.914;18.160;2024-02-15T04:28:00;16.7;;;12.3;;
56271;SDS011;42177;48.914;18.160;2024-02-15T04:32:59;16.7;;;12.3;;
56271;SDS011;42177;48.914;18.160;2024-02-15T04:37:59;15.1;;;11.4;;
56271;SDS011;42177;48.914;18.160;2024-02-15T04:42:59;15.1;;;11.4;;
56271;SDS011;42177;48.914;18.160;2024-02-15T04:48:00;14.8;;;10.7;;
56271;SDS011;42177;48.914;18.160;2024-02-15T04:53:00;14.8;;;10.7;;
56271;SDS011;42177;48.914;18.160;2024-02-15T04:57:59;14.2;;;10.3;;
56271;SDS011;42177;48.914;18.160;2024-02-15T05:03:00;14.2;;;10.3;;
56271;SDS011;42177;48.914;18.160;2024-02-15T05:08:00;12.6;;;11;;
56271;SDS011;42177;48.914;18.160;2024-02-15T05:12:59;12.6;;;11;;
56271;SDS011;42177;48.914;18.160;2024-02-15T05:17:59;15;;;11.1;;
56271;SDS011;42177;48.914;18.160;2024-02-15T05:22:59;15;;;11.1;;
56271;SDS011;42177;48.914;18.160;2024-02-15T05:28:00;15.8;;;11.6;;
56271;SDS011;42177;48.914;18.160;2024-02-15T05:32:59;15.8;;;11.6;;
56271;SDS011;42177;48.914;18.160;2024-02-15T05:37:59;14.2;;;11.3;;
56271;SDS011;42177;48.914;18.160;2024-02-15T05:42:59;14.2;;;11.3;;
56271;SDS011;42177;48.914;18.160;2024-02-15T05:48:00;17.2;;;12.2;;
56271;SDS011;42177;48.914;18.160;2024-02-15T05:53:00;17.2;;;12.2;;
56271;SDS011;42177;48.914;18.160;2024-02-15T05:57:59;18.3;;;14.6;;
56271;SDS011;42177;48.914;18.160;2024-02-15T06:03:00;18.3;;;14.6;;
56271;SDS011;42177;48.914;18.160;2024-02-15T06:08:00;17.3;;;12.5;;
56271;SDS011;42177;48.914;18.160;2024-02-15T06:12:59;17.3;;;12.5;;
56271;SDS011;42177;48.914;18.160;2024-02-15T06:17:59;12.9;;;10.9;;
56271;SDS011;42177;48.914;18.160;2024-02-15T06:23:00;12.9;;;10.9;;
56271;SDS011;42177;48.914;18.160;2024-02-15T06:28:00;17.7;;;12.5;;
56271;SDS011;42177;48.914;18.160;2024-02-15T06:32:59;17.7;;;12.5;;
56271;SDS011;42177;48.914;18.160;2024-02-15T06:37:59;14;;;10.6;;
56271;SDS011;42177;48.914;18.160;2024-02-15T06:43:00;14;;;10.6;;
56271;SDS011;42177;48.914;18.160;2024-02-15T06:48:00;15.8;;;11.5;;
56271;SDS011;42177;48.914;18.160;2024-02-15T06:53:00;15.8;;;11.5;;
56271;SDS011;42177;48.914;18.160;2024-02-15T06:58:00;17.7;;;12.4;;
56271;SDS011;42177;48.914;18.160;2024-02-15T07:03:00;17.7;;;12.4;;
56271;SDS011;42177;48.914;18.160;2024-02-15T07:08:00;16.4;;;11.8;;
56271;SDS011;42177;48.914;18.160;2024-02-15T07:13:00;16.4;;;11.8;;
56271;SDS011;42177;48.914;18.160;2024-02-15T07:17:59;15.3;;;11;;
56271;SDS011;42177;48.914;18.160;2024-02-15T07:23:00;15.3;;;11;;
56271;SDS011;42177;48.914;18.160;2024-02-15T07:28:00;18.2;;;11.9;;
56271;SDS011;42177;48.914;18.160;2024-02-15T07:33:00;18.2;;;11.9;;
56271;SDS011;42177;48.914;18.160;2024-02-15T07:38:00;15.7;;;10.9;;
56271;SDS011;42177;48.914;18.160;2024-02-15T07:43:00;15.7;;;10.9;;
56271;SDS011;42177;48.914;18.160;2024-02-15T07:48:00;12.7;;;10.4;;
56271;SDS011;42177;48.914;18.160;2024-02-15T07:53:00;12.7;;;10.4;;
56271;SDS011;42177;48.914;18.160;2024-02-15T07:58:00;12.6;;;9.6;;
56271;SDS011;42177;48.914;18.160;2024-02-15T08:03:00;12.6;;;9.6;;
56271;SDS011;42177;48.914;18.160;2024-02-15T08:07:59;15.3;;;9.3;;
56271;SDS011;42177;48.914;18.160;2024-02-15T08:13:00;15.3;;;9.3;;
56271;SDS011;42177;48.914;18.160;2024-02-15T08:17:59;15.5;;;9.6;;
56271;SDS011;42177;48.914;18.160;2024-02-15T08:23:00;15.5;;;9.6;;
56271;SDS011;42177;48.914;18.160;2024-02-15T08:28:00;21.2;;;15;;
56271;SDS011;42177;48.914;18.160;2024-02-15T08:33:00;21.2;;;15;;
56271;SDS011;42177;48.914;18.160;2024-02-15T08:38:00;26.2;;;17.7;;
56271;SDS011;42177;48.914;18.160;2024-02-15T08:43:00;26.2;;;17.7;;
56271;SDS011;42177;48.914;18.160;2024-02-15T08:47:59;22.4;;;16.8;;
56271;SDS011;42177;48.914;18.160;2024-02-15T08:53:00;22.4;;;16.8;;
56271;SDS011;42177;48.914;18.160;2024-02-15T08:58:00;19;;;14.5;;
56271;SDS011;42177;48.914;18.160;2024-02-15T09:03:00;19;;;14.5;;
56271;SDS011;42177;48.914;18.160;2024-02-15T09:08:00;25.4;;;16.9;;
56271;SDS011;42177;48.914;18.160;2024-02-15T09:13:00;25.4;;;16.9;;
56271;SDS011;42177;48.914;18.160;2024-02-15T09:18:00;22.7;;;15.5;;
56271;SDS011;42177;48.914;18.160;2024-02-15T09:23:00;22.7;;;15.5;;
56271;SDS011;42177;48.914;18.160;2024-02-15T09:28:00;9.5;;;7.9;;
56271;SDS011;42177;48.914;18.160;2024-02-15T09:33:00;9.5;;;7.9;;
56271;SDS011;42177;48.914;18.160;2024-02-15T09:38:00;15.5;;;7.9;;
56271;SDS011;42177;48.914;18.160;2024-02-15T09:43:00;15.5;;;7.9;;
56271;SDS011;42177;48.914;18.160;2024-02-15T09:48:00;22.1;;;16.8;;
56271;SDS011;42177;48.914;18.160;2024-02-15T09:53:00;22.1;;;16.8;;
56271;SDS011;42177;48.914;18.160;2024-02-15T09:58:00;19.4;;;15.7;;
56271;SDS011;42177;48.914;18.160;2024-02-15T10:03:00;19.4;;;15.7;;
56271;SDS011;42177;48.914;18.160;2024-02-15T10:08:00;17.4;;;14;;
56271;SDS011;42177;48.914;18.160;2024-02-15T10:13:00;17.4;;;14;;
56271;SDS011;42177;48.914;18.160;2024-02-15T10:18:00;18.5;;;13.4;;
56271;SDS011;42177;48.914;18.160;2024-02-15T10:23:15;18.5;;;13.4;;
56271;SDS011;42177;48.914;18.160;2024-02-15T10:28:01;24;;;14.7;;
56271;SDS011;42177;48.914;18.160;2024-02-15T10:33:00;24;;;14.7;;
56271;SDS011;42177;48.914;18.160;2024-02-15T10:38:08;23.5;;;14.1;;
56271;SDS011;42177;48.914;18.160;2024-02-15T10:43:00;23.5;;;14.1;;
56271;SDS011;42177;48.914;18.160;2024-02-15T10:48:00;13.7;;;11.4;;
56271;SDS011;42177;48.914;18.160;2024-02-15T10:53:00;13.7;;;11.4;;
56271;SDS011;42177;48.914;18.160;2024-02-15T10:58:00;9.4;;;7.5;;
56271;SDS011;42177;48.914;18.160;2024-02-15T11:03:00;9.4;;;7.5;;
56271;SDS011;42177;48.914;18.160;2024-02-15T11:08:00;11.5;;;8.6;;
56271;SDS011;42177;48.914;18.160;2024-02-15T11:13:00;11.5;;;8.6;;
56271;SDS011;42177;48.914;18.160;2024-02-15T11:18:00;10.8;;;7.5;;
56271;SDS011;42177;48.914;18.160;2024-02-15T11:23:00;10.8;;;7.5;;
56271;SDS011;42177;48.914;18.160;2024-02-15T11:28:09;10.1;;;7;;
56271;SDS011;42177;48.914;18.160;2024-02-15T11:33:00;10.1;;;7;;
56271;SDS011;42177;48.914;18.160;2024-02-15T11:38:00;10.8;;;8.4;;
56271;SDS011;42177;48.914;18.160;2024-02-15T11:43:00;10.8;;;8.4;;
56271;SDS011;42177;48.914;18.160;2024-02-15T11:48:00;9.4;;;7.2;;
56271;SDS011;42177;48.914;18.160;2024-02-15T11:53:01;9.4;;;7.2;;
56271;SDS011;42177;48.914;18.160;2024-02-15T11:58:00;10.5;;;7.5;;
56271;SDS011;42177;48.914;18.160;2024-02-15T12:03:00;10.5;;;7.5;;
56271;SDS011;42177;48.914;18.160;2024-02-15T12:08:00;8.4;;;6.5;;
56271;SDS011;42177;48.914;18.160;2024-02-15T12:13:00;8.4;;;6.5;;
56271;SDS011;42177;48.914;18.160;2024-02-15T12:18:13;8.7;;;6.7;;
56271;SDS011;42177;48.914;18.160;2024-02-15T12:23:00;8.7;;;6.7;;
56271;SDS011;42177;48.914;18.160;2024-02-15T12:28:00;10.1;;;6.9;;
56271;SDS011;42177;48.914;18.160;2024-02-15T12:33:08;10.1;;;6.9;;
56271;SDS011;42177;48.914;18.160;2024-02-15T12:38:01;9.5;;;7;;
56271;SDS011;42177;48.914;18.160;2024-02-15T12:43:00;9.5;;;7;;
56271;SDS011;42177;48.914;18.160;2024-02-15T12:48:02;10.7;;;7.3;;
56271;SDS011;42177;48.914;18.160;2024-02-15T12:53:00;10.7;;;7.3;;
56271;SDS011;42177;48.914;18.160;2024-02-15T12:58:00;9.6;;;6.6;;
56271;SDS011;42177;48.914;18.160;2024-02-15T13:03:01;9.6;;;6.6;;
56271;SDS011;42177;48.914;18.160;2024-02-15T13:08:00;12.1;;;7.5;;
56271;SDS011;42177;48.914;18.160;2024-02-15T13:13:00;12.1;;;7.5;;
56271;SDS011;42177;48.914;18.160;2024-02-15T13:18:00;10.5;;;7.2;;
56271;SDS011;42177;48.914;18.160;2024-02-15T13:23:00;10.5;;;7.2;;
56271;SDS011;42177;48.914;18.160;2024-02-15T13:28:00;11.1;;;7.8;;
56271;SDS011;42177;48.914;18.160;2024-02-15T13:33:00;11.1;;;7.8;;
56271;SDS011;42177;48.914;18.160;2024-02-15T13:38:00;9.5;;;6.7;;
56271;SDS011;42177;48.914;18.160;2024-02-15T13:43:00;9.5;;;6.7;;
56271;SDS011;42177;48.914;18.160;2024-02-15T13:48:00;9.1;;;6.8;;
56271;SDS011;42177;48.914;18.160;2024-02-15T13:53:00;9.1;;;6.8;;
56271;SDS011;42177;48.914;18.160;2024-02-15T13:58:00;8.8;;;6.4;;
56271;SDS011;42177;48.914;18.160;2024-02-15T14:03:00;8.8;;;6.4;;
56271;SDS011;42177;48.914;18.160;2024-02-15T14:08:00;9.1;;;6;;
56271;SDS011;42177;48.914;18.160;2024-02-15T14:13:00;9.1;;;6;;
56271;SDS011;42177;48.914;18.160;2024-02-15T14:18:00;8.2;;;6.4;;
56271;SDS011;42177;48.914;18.160;2024-02-15T14:23:00;8.2;;;6.4;;
56271;SDS011;42177;48.914;18.160;2024-02-15T14:28:00;7.7;;;5.6;;
56271;SDS011;42177;48.914;18.160;2024-02-15T14:33:00;7.7;;;5.6;;
56271;SDS011;42177;48.914;18.160;2024-02-15T14:38:00;8.7;;;5.9;;
56271;SDS011;42177;48.914;18.160;2024-02-15T14:43:00;8.7;;;5.9;;
56271;SDS011;42177;48.914;18.160;2024-02-15T14:48:00;8.2;;;5.8;;
56271;SDS011;42177;48.914;18.160;2024-02-15T14:53:00;8.2;;;5.8;;
56271;SDS011;42177;48.914;18.160;2024-02-15T14:58:00;8.3;;;6;;
56271;SDS011;42177;48.914;18.160;2024-02-15T15:03:00;8.3;;;6;;
56271;SDS011;42177;48.914;18.160;2024-02-15T15:08:00;7.4;;;6;;
56271;SDS011;42177;48.914;18.160;2024-02-15T15:13:00;7.4;;;6;;
56271;SDS011;42177;48.914;18.160;2024-02-15T15:18:00;9.6;;;5.8;;
56271;SDS011;42177;48.914;18.160;2024-02-15T15:23:00;9.6;;;5.8;;
56271;SDS011;42177;48.914;18.160;2024-02-15T15:28:00;7.3;;;5.4;;
56271;SDS011;42177;48.914;18.160;2024-02-15T15:33:00;7.3;;;5.4;;
56271;SDS011;42177;48.914;18.160;2024-02-15T15:38:00;12.5;;;5.7;;
56271;SDS011;42177;48.914;18.160;2024-02-15T15:43:00;12.5;;;5.7;;
56271;SDS011;42177;48.914;18.160;2024-02-15T15:48:00;7.2;;;5.4;;
56271;SDS011;42177;48.914;18.160;2024-02-15T15:53:00;7.2;;;5.4;;
56271;SDS011;42177;48.914;18.160;2024-02-15T15:58:00;7.8;;;5.3;;
56271;SDS011;42177;48.914;18.160;2024-02-15T16:03:00;7.8;;;5.3;;
56271;SDS011;42177;48.914;18.160;2024-02-15T16:08:00;8.2;;;5;;
56271;SDS011;42177;48.914;18.160;2024-02-15T16:13:00;8.2;;;5;;
56271;SDS011;42177;48.914;18.160;2024-02-15T16:18:00;7;;;4.8;;
56271;SDS011;42177;48.914;18.160;2024-02-15T16:23:00;7;;;4.8;;
56271;SDS011;42177;48.914;18.160;2024-02-15T16:28:00;7.7;;;4.7;;
56271;SDS011;42177;48.914;18.160;2024-02-15T16:33:00;7.7;;;4.7;;
56271;SDS011;42177;48.914;18.160;2024-02-15T16:38:00;8.2;;;4.6;;
56271;SDS011;42177;48.914;18.160;2024-02-15T16:43:00;8.2;;;4.6;;
56271;SDS011;42177;48.914;18.160;2024-02-15T16:48:00;5.7;;;4.5;;
56271;SDS011;42177;48.914;18.160;2024-02-15T16:53:00;5.7;;;4.5;;
56271;SDS011;42177;48.914;18.160;2024-02-15T16:58:00;7.2;;;4.7;;
56271;SDS011;42177;48.914;18.160;2024-02-15T17:03:00;7.2;;;4.7;;
56271;SDS011;42177;48.914;18.160;2024-02-15T17:08:00;7.5;;;4.7;;
56271;SDS011;42177;48.914;18.160;2024-02-15T17:13:00;7.5;;;4.7;;
56271;SDS011;42177;48.914;18.160;2024-02-15T17:18:00;9.3;;;6.7;;
56271;SDS011;42177;48.914;18.160;2024-02-15T17:23:00;9.3;;;6.7;;
56271;SDS011;42177;48.914;18.160;2024-02-15T17:28:00;11.9;;;9.5;;
56271;SDS011;42177;48.914;18.160;2024-02-15T17:33:00;11.9;;;9.5;;
56271;SDS011;42177;48.914;18.160;2024-02-15T17:38:00;14.3;;;10.5;;
56271;SDS011;42177;48.914;18.160;2024-02-15T17:43:00;14.3;;;10.5;;
56271;SDS011;42177;48.914;18.160;2024-02-15T17:48:00;13.5;;;11.2;;
56271;SDS011;42177;48.914;18.160;2024-02-15T17:53:00;13.5;;;11.2;;
56271;SDS011;42177;48.914;18.160;2024-02-15T17:58:00;15.3;;;11.3;;
56271;SDS011;42177;48.914;18.160;2024-02-15T18:03:00;15.3;;;11.3;;
56271;SDS011;42177;48.914;18.160;2024-02-15T18:08:00;15;;;11.6;;
56271;SDS011;42177;48.914;18.160;2024-02-15T18:13:00;15;;;11.6;;
56271;SDS011;42177;48.914;18.160;2024-02-15T18:18:00;15;;;11.6;;
56271;SDS011;42177;48.914;18.160;2024-02-15T18:23:00;15;;;11.6;;
56271;SDS011;42177;48.914;18.160;2024-02-15T18:28:00;15.7;;;12.9;;
56271;SDS011;42177;48.914;18.160;2024-02-15T18:33:00;15.7;;;12.9;;
56271;SDS011;42177;48.914;18.160;2024-02-15T18:38:00;15.9;;;11.9;;
56271;SDS011;42177;48.914;18.160;2024-02-15T18:43:00;15.9;;;11.9;;
56271;SDS011;42177;48.914;18.160;2024-02-15T18:48:00;16.1;;;13.2;;
56271;SDS011;42177;48.914;18.160;2024-02-15T18:53:00;16.1;;;13.2;;
56271;SDS011;42177;48.914;18.160;2024-02-15T18:58:00;17.3;;;13.8;;
56271;SDS011;42177;48.914;18.160;2024-02-15T19:03:00;17.3;;;13.8;;
56271;SDS011;42177;48.914;18.160;2024-02-15T19:08:00;16.9;;;14.6;;
56271;SDS011;42177;48.914;18.160;2024-02-15T19:13:00;16.9;;;14.6;;
56271;SDS011;42177;48.914;18.160;2024-02-15T19:18:00;16.5;;;13.7;;
56271;SDS011;42177;48.914;18.160;2024-02-15T19:23:00;16.5;;;13.7;;
56271;SDS011;42177;48.914;18.160;2024-02-15T19:28:00;20.1;;;14.2;;
56271;SDS011;42177;48.914;18.160;2024-02-15T19:33:00;20.1;;;14.2;;
56271;SDS011;42177;48.914;18.160;2024-02-15T19:38:00;16.8;;;13.2;;
56271;SDS011;42177;48.914;18.160;2024-02-15T19:43:00;16.8;;;13.2;;
56271;SDS011;42177;48.914;18.160;2024-02-15T19:48:00;16.3;;;12.9;;
56271;SDS011;42177;48.914;18.160;2024-02-15T19:53:00;16.3;;;12.9;;
56271;SDS011;42177;48.914;18.160;2024-02-15T19:58:00;17.7;;;13.5;;
56271;SDS011;42177;48.914;18.160;2024-02-15T20:03:00;17.7;;;13.5;;
56271;SDS011;42177;48.914;18.160;2024-02-15T20:08:00;18.3;;;14.5;;
56271;SDS011;42177;48.914;18.160;2024-02-15T20:13:00;18.3;;;14.5;;
56271;SDS011;42177;48.914;18.160;2024-02-15T20:18:00;17.2;;;14;;
56271;SDS011;42177;48.914;18.160;2024-02-15T20:23:00;17.2;;;14;;
56271;SDS011;42177;48.914;18.160;2024-02-15T20:28:00;17.4;;;13.9;;
56271;SDS011;42177;48.914;18.160;2024-02-15T20:33:00;17.4;;;13.9;;
56271;SDS011;42177;48.914;18.160;2024-02-15T20:38:00;17.2;;;13.2;;
56271;SDS011;42177;48.914;18.160;2024-02-15T20:43:00;17.2;;;13.2;;
56271;SDS011;42177;48.914;18.160;2024-02-15T20:48:00;16.8;;;12.6;;
56271;SDS011;42177;48.914;18.160;2024-02-15T20:53:00;16.8;;;12.6;;
56271;SDS011;42177;48.914;18.160;2024-02-15T20:58:00;18;;;13.5;;
56271;SDS011;42177;48.914;18.160;2024-02-15T21:03:00;18;;;13.5;;
56271;SDS011;42177;48.914;18.160;2024-02-15T21:08:00;17.4;;;13.7;;
56271;SDS011;42177;48.914;18.160;2024-02-15T21:13:00;17.4;;;13.7;;
56271;SDS011;42177;48.914;18.160;2024-02-15T21:18:00;18.4;;;13.7;;
56271;SDS011;42177;48.914;18.160;2024-02-15T21:23:00;18.4;;;13.7;;
56271;SDS011;42177;48.914;18.160;2024-02-15T21:28:00;18;;;14.8;;
56271;SDS011;42177;48.914;18.160;2024-02-15T21:33:00;18;;;14.8;;
56271;SDS011;42177;48.914;18.160;2024-02-15T21:38:00;20.8;;;15.2;;
56271;SDS011;42177;48.914;18.160;2024-02-15T21:43:00;20.8;;;15.2;;
56271;SDS011;42177;48.914;18.160;2024-02-15T21:48:00;19.7;;;14.3;;
56271;SDS011;42177;48.914;18.160;2024-02-15T21:53:00;19.7;;;14.3;;
56271;SDS011;42177;48.914;18.160;2024-02-15T21:58:00;20.6;;;14.8;;
56271;SDS011;42177;48.914;18.160;2024-02-15T22:03:00;20.6;;;14.8;;
56271;SDS011;42177;48.914;18.160;2024-02-15T22:08:00;17.1;;;13.6;;
56271;SDS011;42177;48.914;18.160;2024-02-15T22:13:00;17.1;;;13.6;;
56271;SDS011;42177;48.914;18.160;2024-02-15T22:18:00;16.4;;;12.7;;
56271;SDS011;42177;48.914;18.160;2024-02-15T22:23:00;16.4;;;12.7;;
56271;SDS011;42177;48.914;18.160;2024-02-15T22:28:00;19.2;;;15.6;;
56271;SDS011;42177;48.914;18.160;2024-02-15T22:33:00;19.2;;;15.6;;
56271;SDS011;42177;48.914;18.160;2024-02-15T22:38:00;18.8;;;14.3;;
56271;SDS011;42177;48.914;18.160;2024-02-15T22:43:00;18.8;;;14.3;;
56271;SDS011;42177;48.914;18.160;2024-02-15T22:48:00;19.6;;;14.5;;
56271;SDS011;42177;48.914;18.160;2024-02-15T22:53:00;19.6;;;14.5;;
56271;SDS011;42177;48.914;18.160;2024-02-15T22:58:00;18.5;;;14.5;;
56271;SDS011;42177;48.914;18.160;2024-02-15T23:03:00;18.5;;;14.5;;
56271;SDS011;42177;48.914;18.160;2024-02-15T23:08:00;20.3;;;16.8;;
56271;SDS011;42177;48.914;18.160;2024-02-15T23:13:00;20.3;;;16.8;;
56271;SDS011;42177;48.914;18.160;2024-02-15T23:18:00;20.9;;;17.7;;
56271;SDS011;42177;48.914;18.160;2024-02-15T23:23:00;20.9;;;17.7;;
56271;SDS011;42177;48.914;18.160;2024-02-15T23:28:00;18.8;;;16.4;;
56271;SDS011;42177;48.914;18.160;2024-02-15T23:33:00;18.8;;;16.4;;
56271;SDS011;42177;48.914;18.160;2024-02-15T23:38:00;22.3;;;16.3;;
56271;SDS011;42177;48.914;18.160;2024-02-15T23:43:00;22.3;;;16.3;;
56271;SDS011;42177;48.914;18.160;2024-02-15T23:48:00;19.6;;;16.7;;
56271;SDS011;42177;48.914;18.160;2024-02-15T23:53:00;19.6;;;16.7;;
56271;SDS011;42177;48.914;18.160;2024-02-15T23:58:00;20.6;;;16.4;;
